sensor_id;sensor_type;location;lat;lon;timestamp;P1;durP1;ratioP1;P2;durP2;ratioP2
72198;SDS011;72266;51.056;16.880;2024-02-23T00:01:56;5.70;;;1.50;;
72198;SDS011;72266;51.056;16.880;2024-02-23T00:04:28;6.10;;;1.50;;
72198;SDS011;72266;51.056;16.880;2024-02-23T00:06:58;3.50;;;1.10;;
72198;SDS011;72266;51.056;16.880;2024-02-23T00:09:31;5.10;;;1.40;;
72198;SDS011;72266;51.056;16.880;2024-02-23T00:12:04;4.40;;;1.30;;
72198;SDS011;72266;51.056;16.880;2024-02-23T00:14:37;4.80;;;1.20;;
72198;SDS011;72266;51.056;16.880;2024-02-23T00:17:07;4.50;;;1.20;;
72198;SDS011;72266;51.056;16.880;2024-02-23T00:19:39;5.20;;;1.10;;
72198;SDS011;72266;51.056;16.880;2024-02-23T00:22:09;4.50;;;1.10;;
72198;SDS011;72266;51.056;16.880;2024-02-23T00:24:39;4.90;;;1.20;;
72198;SDS011;72266;51.056;16.880;2024-02-23T00:27:10;4.20;;;1.00;;
72198;SDS011;72266;51.056;16.880;2024-02-23T00:29:40;4.40;;;1.10;;
72198;SDS011;72266;51.056;16.880;2024-02-23T00:32:10;4.70;;;1.30;;
72198;SDS011;72266;51.056;16.880;2024-02-23T00:34:41;4.50;;;1.30;;
72198;SDS011;72266;51.056;16.880;2024-02-23T00:37:12;4.30;;;1.20;;
72198;SDS011;72266;51.056;16.880;2024-02-23T00:39:44;3.60;;;1.10;;
72198;SDS011;72266;51.056;16.880;2024-02-23T00:42:15;4.00;;;0.90;;
72198;SDS011;72266;51.056;16.880;2024-02-23T00:44:46;3.40;;;1.00;;
72198;SDS011;72266;51.056;16.880;2024-02-23T00:47:16;3.80;;;0.90;;
72198;SDS011;72266;51.056;16.880;2024-02-23T00:49:46;4.60;;;1.10;;
72198;SDS011;72266;51.056;16.880;2024-02-23T00:52:16;5.70;;;1.20;;
72198;SDS011;72266;51.056;16.880;2024-02-23T00:54:46;4.50;;;1.20;;
72198;SDS011;72266;51.056;16.880;2024-02-23T00:57:16;4.90;;;1.30;;
72198;SDS011;72266;51.056;16.880;2024-02-23T00:59:49;4.40;;;1.20;;
72198;SDS011;72266;51.056;16.880;2024-02-23T01:02:19;3.50;;;0.80;;
72198;SDS011;72266;51.056;16.880;2024-02-23T01:04:50;4.70;;;1.10;;
72198;SDS011;72266;51.056;16.880;2024-02-23T01:07:24;4.50;;;1.30;;
72198;SDS011;72266;51.056;16.880;2024-02-23T01:09:56;4.20;;;1.10;;
72198;SDS011;72266;51.056;16.880;2024-02-23T01:12:26;4.20;;;1.10;;
72198;SDS011;72266;51.056;16.880;2024-02-23T01:14:56;3.00;;;0.80;;
72198;SDS011;72266;51.056;16.880;2024-02-23T01:17:30;4.90;;;1.10;;
72198;SDS011;72266;51.056;16.880;2024-02-23T01:20:00;3.80;;;1.10;;
72198;SDS011;72266;51.056;16.880;2024-02-23T01:22:31;4.10;;;1.20;;
72198;SDS011;72266;51.056;16.880;2024-02-23T01:25:00;2.90;;;0.80;;
72198;SDS011;72266;51.056;16.880;2024-02-23T01:27:33;3.70;;;0.90;;
72198;SDS011;72266;51.056;16.880;2024-02-23T01:30:04;3.50;;;0.80;;
72198;SDS011;72266;51.056;16.880;2024-02-23T01:32:37;4.10;;;1.10;;
72198;SDS011;72266;51.056;16.880;2024-02-23T01:35:08;3.80;;;1.00;;
72198;SDS011;72266;51.056;16.880;2024-02-23T01:37:38;3.90;;;0.90;;
72198;SDS011;72266;51.056;16.880;2024-02-23T01:40:09;3.80;;;0.90;;
72198;SDS011;72266;51.056;16.880;2024-02-23T01:42:39;4.40;;;1.10;;
72198;SDS011;72266;51.056;16.880;2024-02-23T01:45:09;5.00;;;1.20;;
72198;SDS011;72266;51.056;16.880;2024-02-23T01:47:38;3.70;;;1.20;;
72198;SDS011;72266;51.056;16.880;2024-02-23T01:50:09;4.20;;;1.10;;
72198;SDS011;72266;51.056;16.880;2024-02-23T01:52:42;4.80;;;1.30;;
72198;SDS011;72266;51.056;16.880;2024-02-23T01:55:13;4.40;;;1.20;;
72198;SDS011;72266;51.056;16.880;2024-02-23T01:57:43;5.20;;;1.40;;
72198;SDS011;72266;51.056;16.880;2024-02-23T02:00:18;5.10;;;1.30;;
72198;SDS011;72266;51.056;16.880;2024-02-23T02:02:55;4.30;;;1.20;;
72198;SDS011;72266;51.056;16.880;2024-02-23T02:05:26;4.50;;;1.10;;
72198;SDS011;72266;51.056;16.880;2024-02-23T02:07:57;4.20;;;1.20;;
72198;SDS011;72266;51.056;16.880;2024-02-23T02:10:28;5.30;;;1.40;;
72198;SDS011;72266;51.056;16.880;2024-02-23T02:13:02;6.40;;;1.60;;
72198;SDS011;72266;51.056;16.880;2024-02-23T02:15:34;4.10;;;1.00;;
72198;SDS011;72266;51.056;16.880;2024-02-23T02:18:08;6.00;;;1.60;;
72198;SDS011;72266;51.056;16.880;2024-02-23T02:20:38;5.20;;;1.50;;
72198;SDS011;72266;51.056;16.880;2024-02-23T02:23:13;5.10;;;1.40;;
72198;SDS011;72266;51.056;16.880;2024-02-23T02:25:44;6.00;;;1.90;;
72198;SDS011;72266;51.056;16.880;2024-02-23T02:28:20;6.80;;;1.70;;
72198;SDS011;72266;51.056;16.880;2024-02-23T02:30:50;5.20;;;1.40;;
72198;SDS011;72266;51.056;16.880;2024-02-23T02:33:21;7.10;;;1.70;;
72198;SDS011;72266;51.056;16.880;2024-02-23T02:35:51;6.10;;;1.90;;
72198;SDS011;72266;51.056;16.880;2024-02-23T02:38:21;6.30;;;1.90;;
72198;SDS011;72266;51.056;16.880;2024-02-23T02:40:51;7.30;;;2.20;;
72198;SDS011;72266;51.056;16.880;2024-02-23T02:43:21;6.00;;;2.00;;
72198;SDS011;72266;51.056;16.880;2024-02-23T02:45:52;6.70;;;2.10;;
72198;SDS011;72266;51.056;16.880;2024-02-23T02:48:22;6.20;;;1.90;;
72198;SDS011;72266;51.056;16.880;2024-02-23T02:50:52;6.30;;;2.10;;
72198;SDS011;72266;51.056;16.880;2024-02-23T02:53:23;6.70;;;1.70;;
72198;SDS011;72266;51.056;16.880;2024-02-23T02:55:53;7.50;;;2.50;;
72198;SDS011;72266;51.056;16.880;2024-02-23T02:58:24;7.40;;;2.80;;
72198;SDS011;72266;51.056;16.880;2024-02-23T03:00:53;8.10;;;2.80;;
72198;SDS011;72266;51.056;16.880;2024-02-23T03:03:24;7.80;;;3.00;;
72198;SDS011;72266;51.056;16.880;2024-02-23T03:05:54;7.50;;;2.90;;
72198;SDS011;72266;51.056;16.880;2024-02-23T03:08:24;7.90;;;2.70;;
72198;SDS011;72266;51.056;16.880;2024-02-23T03:10:54;7.30;;;3.00;;
72198;SDS011;72266;51.056;16.880;2024-02-23T03:13:25;8.00;;;2.60;;
72198;SDS011;72266;51.056;16.880;2024-02-23T03:15:54;7.70;;;3.00;;
72198;SDS011;72266;51.056;16.880;2024-02-23T03:18:24;7.70;;;2.80;;
72198;SDS011;72266;51.056;16.880;2024-02-23T03:20:55;6.20;;;2.10;;
72198;SDS011;72266;51.056;16.880;2024-02-23T03:23:26;8.00;;;2.70;;
72198;SDS011;72266;51.056;16.880;2024-02-23T03:25:57;7.20;;;2.80;;
72198;SDS011;72266;51.056;16.880;2024-02-23T03:28:30;7.50;;;2.70;;
72198;SDS011;72266;51.056;16.880;2024-02-23T03:31:01;7.10;;;2.50;;
72198;SDS011;72266;51.056;16.880;2024-02-23T03:33:31;7.60;;;2.70;;
72198;SDS011;72266;51.056;16.880;2024-02-23T03:36:02;6.90;;;2.40;;
72198;SDS011;72266;51.056;16.880;2024-02-23T03:38:35;7.00;;;2.50;;
72198;SDS011;72266;51.056;16.880;2024-02-23T03:41:07;7.20;;;2.90;;
72198;SDS011;72266;51.056;16.880;2024-02-23T03:43:37;6.80;;;2.40;;
72198;SDS011;72266;51.056;16.880;2024-02-23T03:46:08;6.50;;;2.10;;
72198;SDS011;72266;51.056;16.880;2024-02-23T03:48:39;7.60;;;2.40;;
72198;SDS011;72266;51.056;16.880;2024-02-23T03:51:10;6.30;;;2.30;;
72198;SDS011;72266;51.056;16.880;2024-02-23T03:53:41;6.80;;;2.40;;
72198;SDS011;72266;51.056;16.880;2024-02-23T03:56:11;6.80;;;2.50;;
72198;SDS011;72266;51.056;16.880;2024-02-23T03:58:41;6.40;;;2.20;;
72198;SDS011;72266;51.056;16.880;2024-02-23T04:01:12;7.00;;;2.40;;
72198;SDS011;72266;51.056;16.880;2024-02-23T04:03:43;6.20;;;2.10;;
72198;SDS011;72266;51.056;16.880;2024-02-23T04:06:14;7.30;;;2.60;;
72198;SDS011;72266;51.056;16.880;2024-02-23T04:08:45;12.30;;;6.00;;
72198;SDS011;72266;51.056;16.880;2024-02-23T04:11:18;9.90;;;4.30;;
72198;SDS011;72266;51.056;16.880;2024-02-23T04:13:50;8.70;;;3.20;;
72198;SDS011;72266;51.056;16.880;2024-02-23T04:16:23;7.30;;;2.40;;
72198;SDS011;72266;51.056;16.880;2024-02-23T04:18:54;10.80;;;4.30;;
72198;SDS011;72266;51.056;16.880;2024-02-23T04:21:25;8.30;;;3.30;;
72198;SDS011;72266;51.056;16.880;2024-02-23T04:23:56;7.80;;;3.00;;
72198;SDS011;72266;51.056;16.880;2024-02-23T04:26:28;8.90;;;2.90;;
72198;SDS011;72266;51.056;16.880;2024-02-23T04:28:59;8.40;;;2.70;;
72198;SDS011;72266;51.056;16.880;2024-02-23T04:31:29;11.80;;;4.10;;
72198;SDS011;72266;51.056;16.880;2024-02-23T04:34:00;8.50;;;2.90;;
72198;SDS011;72266;51.056;16.880;2024-02-23T04:36:31;8.20;;;2.90;;
72198;SDS011;72266;51.056;16.880;2024-02-23T04:39:01;11.10;;;3.90;;
72198;SDS011;72266;51.056;16.880;2024-02-23T04:41:35;9.00;;;3.50;;
72198;SDS011;72266;51.056;16.880;2024-02-23T04:44:08;8.50;;;3.10;;
72198;SDS011;72266;51.056;16.880;2024-02-23T04:46:39;8.30;;;2.70;;
72198;SDS011;72266;51.056;16.880;2024-02-23T04:49:09;7.60;;;3.00;;
72198;SDS011;72266;51.056;16.880;2024-02-23T04:51:41;7.20;;;2.50;;
72198;SDS011;72266;51.056;16.880;2024-02-23T04:54:12;7.60;;;2.50;;
72198;SDS011;72266;51.056;16.880;2024-02-23T04:56:42;7.50;;;2.70;;
72198;SDS011;72266;51.056;16.880;2024-02-23T04:59:12;7.30;;;2.30;;
72198;SDS011;72266;51.056;16.880;2024-02-23T05:01:43;7.30;;;2.60;;
72198;SDS011;72266;51.056;16.880;2024-02-23T05:04:13;7.90;;;2.90;;
72198;SDS011;72266;51.056;16.880;2024-02-23T05:06:44;8.10;;;2.50;;
72198;SDS011;72266;51.056;16.880;2024-02-23T05:09:14;7.00;;;2.30;;
72198;SDS011;72266;51.056;16.880;2024-02-23T05:11:44;6.60;;;2.30;;
72198;SDS011;72266;51.056;16.880;2024-02-23T05:14:15;6.80;;;2.60;;
72198;SDS011;72266;51.056;16.880;2024-02-23T05:16:45;7.40;;;2.80;;
72198;SDS011;72266;51.056;16.880;2024-02-23T05:19:15;7.40;;;2.70;;
72198;SDS011;72266;51.056;16.880;2024-02-23T05:21:45;6.50;;;2.30;;
72198;SDS011;72266;51.056;16.880;2024-02-23T05:24:15;7.50;;;2.90;;
72198;SDS011;72266;51.056;16.880;2024-02-23T05:26:45;8.00;;;2.60;;
72198;SDS011;72266;51.056;16.880;2024-02-23T05:29:15;6.90;;;2.50;;
72198;SDS011;72266;51.056;16.880;2024-02-23T05:31:48;6.80;;;2.60;;
72198;SDS011;72266;51.056;16.880;2024-02-23T05:34:22;8.20;;;2.90;;
72198;SDS011;72266;51.056;16.880;2024-02-23T05:36:52;6.60;;;2.20;;
72198;SDS011;72266;51.056;16.880;2024-02-23T05:39:23;7.40;;;2.80;;
72198;SDS011;72266;51.056;16.880;2024-02-23T05:41:53;7.50;;;2.80;;
72198;SDS011;72266;51.056;16.880;2024-02-23T05:44:25;7.80;;;3.10;;
72198;SDS011;72266;51.056;16.880;2024-02-23T05:46:56;7.90;;;2.70;;
72198;SDS011;72266;51.056;16.880;2024-02-23T05:49:26;7.10;;;2.90;;
72198;SDS011;72266;51.056;16.880;2024-02-23T05:51:57;8.50;;;3.00;;
72198;SDS011;72266;51.056;16.880;2024-02-23T05:54:27;7.40;;;2.90;;
72198;SDS011;72266;51.056;16.880;2024-02-23T05:56:57;7.90;;;2.80;;
72198;SDS011;72266;51.056;16.880;2024-02-23T05:59:27;7.70;;;2.90;;
72198;SDS011;72266;51.056;16.880;2024-02-23T06:01:57;8.40;;;3.00;;
72198;SDS011;72266;51.056;16.880;2024-02-23T06:04:28;7.50;;;2.70;;
72198;SDS011;72266;51.056;16.880;2024-02-23T06:06:58;7.30;;;2.80;;
72198;SDS011;72266;51.056;16.880;2024-02-23T06:09:29;7.60;;;2.70;;
72198;SDS011;72266;51.056;16.880;2024-02-23T06:12:04;7.80;;;3.00;;
72198;SDS011;72266;51.056;16.880;2024-02-23T06:14:38;7.10;;;2.60;;
72198;SDS011;72266;51.056;16.880;2024-02-23T06:17:08;8.30;;;2.40;;
72198;SDS011;72266;51.056;16.880;2024-02-23T06:19:38;6.70;;;2.30;;
72198;SDS011;72266;51.056;16.880;2024-02-23T06:22:11;7.30;;;2.60;;
72198;SDS011;72266;51.056;16.880;2024-02-23T06:24:41;7.60;;;2.80;;
72198;SDS011;72266;51.056;16.880;2024-02-23T06:27:12;7.20;;;2.80;;
72198;SDS011;72266;51.056;16.880;2024-02-23T06:29:42;7.60;;;2.70;;
72198;SDS011;72266;51.056;16.880;2024-02-23T06:32:13;7.90;;;2.80;;
72198;SDS011;72266;51.056;16.880;2024-02-23T06:34:45;7.80;;;2.90;;
72198;SDS011;72266;51.056;16.880;2024-02-23T06:37:15;6.70;;;2.80;;
72198;SDS011;72266;51.056;16.880;2024-02-23T06:39:45;6.60;;;2.70;;
72198;SDS011;72266;51.056;16.880;2024-02-23T06:42:19;7.60;;;2.50;;
72198;SDS011;72266;51.056;16.880;2024-02-23T06:44:49;7.60;;;2.80;;
72198;SDS011;72266;51.056;16.880;2024-02-23T06:47:20;6.70;;;2.40;;
72198;SDS011;72266;51.056;16.880;2024-02-23T06:49:50;6.70;;;2.30;;
72198;SDS011;72266;51.056;16.880;2024-02-23T06:52:20;7.80;;;2.50;;
72198;SDS011;72266;51.056;16.880;2024-02-23T06:54:51;8.80;;;2.90;;
72198;SDS011;72266;51.056;16.880;2024-02-23T06:57:21;9.00;;;3.10;;
72198;SDS011;72266;51.056;16.880;2024-02-23T06:59:53;7.70;;;2.70;;
72198;SDS011;72266;51.056;16.880;2024-02-23T07:02:23;9.20;;;2.80;;
72198;SDS011;72266;51.056;16.880;2024-02-23T07:04:53;7.50;;;2.40;;
72198;SDS011;72266;51.056;16.880;2024-02-23T07:07:25;8.70;;;3.00;;
72198;SDS011;72266;51.056;16.880;2024-02-23T07:09:57;9.00;;;2.70;;
72198;SDS011;72266;51.056;16.880;2024-02-23T07:12:27;8.30;;;2.80;;
72198;SDS011;72266;51.056;16.880;2024-02-23T07:14:57;7.60;;;2.70;;
72198;SDS011;72266;51.056;16.880;2024-02-23T07:17:28;7.20;;;2.20;;
72198;SDS011;72266;51.056;16.880;2024-02-23T07:19:58;6.30;;;2.10;;
72198;SDS011;72266;51.056;16.880;2024-02-23T07:22:35;6.90;;;2.00;;
72198;SDS011;72266;51.056;16.880;2024-02-23T07:25:07;10.00;;;2.40;;
72198;SDS011;72266;51.056;16.880;2024-02-23T07:27:37;9.20;;;3.10;;
72198;SDS011;72266;51.056;16.880;2024-02-23T07:30:09;9.00;;;2.70;;
72198;SDS011;72266;51.056;16.880;2024-02-23T07:32:41;11.20;;;2.90;;
72198;SDS011;72266;51.056;16.880;2024-02-23T07:35:12;7.90;;;2.50;;
72198;SDS011;72266;51.056;16.880;2024-02-23T07:37:44;8.00;;;2.30;;
72198;SDS011;72266;51.056;16.880;2024-02-23T07:40:15;8.60;;;2.50;;
72198;SDS011;72266;51.056;16.880;2024-02-23T07:42:49;8.70;;;2.20;;
72198;SDS011;72266;51.056;16.880;2024-02-23T07:45:19;6.10;;;1.80;;
72198;SDS011;72266;51.056;16.880;2024-02-23T07:47:49;10.60;;;2.50;;
72198;SDS011;72266;51.056;16.880;2024-02-23T07:50:20;8.60;;;2.30;;
72198;SDS011;72266;51.056;16.880;2024-02-23T07:52:52;10.90;;;2.80;;
72198;SDS011;72266;51.056;16.880;2024-02-23T07:55:23;7.30;;;2.50;;
72198;SDS011;72266;51.056;16.880;2024-02-23T07:57:54;9.60;;;2.30;;
72198;SDS011;72266;51.056;16.880;2024-02-23T08:00:33;9.20;;;2.60;;
72198;SDS011;72266;51.056;16.880;2024-02-23T08:03:06;8.00;;;2.40;;
72198;SDS011;72266;51.056;16.880;2024-02-23T08:05:40;9.20;;;2.70;;
72198;SDS011;72266;51.056;16.880;2024-02-23T08:08:09;8.20;;;2.50;;
72198;SDS011;72266;51.056;16.880;2024-02-23T08:10:40;9.60;;;2.10;;
72198;SDS011;72266;51.056;16.880;2024-02-23T08:13:11;8.90;;;2.20;;
72198;SDS011;72266;51.056;16.880;2024-02-23T08:15:46;6.70;;;1.90;;
72198;SDS011;72266;51.056;16.880;2024-02-23T08:18:16;8.40;;;2.10;;
72198;SDS011;72266;51.056;16.880;2024-02-23T08:20:48;7.90;;;2.10;;
72198;SDS011;72266;51.056;16.880;2024-02-23T08:23:19;5.80;;;1.70;;
72198;SDS011;72266;51.056;16.880;2024-02-23T08:25:51;6.80;;;2.20;;
72198;SDS011;72266;51.056;16.880;2024-02-23T08:28:21;7.80;;;1.80;;
72198;SDS011;72266;51.056;16.880;2024-02-23T08:30:54;7.20;;;2.40;;
72198;SDS011;72266;51.056;16.880;2024-02-23T08:33:24;7.50;;;2.20;;
72198;SDS011;72266;51.056;16.880;2024-02-23T08:35:54;6.40;;;2.10;;
72198;SDS011;72266;51.056;16.880;2024-02-23T08:38:24;7.50;;;2.20;;
72198;SDS011;72266;51.056;16.880;2024-02-23T08:40:55;7.10;;;2.00;;
72198;SDS011;72266;51.056;16.880;2024-02-23T08:43:27;5.30;;;1.30;;
72198;SDS011;72266;51.056;16.880;2024-02-23T08:45:57;4.70;;;0.90;;
72198;SDS011;72266;51.056;16.880;2024-02-23T08:48:35;3.60;;;1.00;;
72198;SDS011;72266;51.056;16.880;2024-02-23T08:51:08;4.70;;;1.00;;
72198;SDS011;72266;51.056;16.880;2024-02-23T08:53:40;4.30;;;1.00;;
72198;SDS011;72266;51.056;16.880;2024-02-23T08:56:11;5.20;;;1.00;;
72198;SDS011;72266;51.056;16.880;2024-02-23T08:58:44;5.50;;;0.90;;
72198;SDS011;72266;51.056;16.880;2024-02-23T09:01:14;4.10;;;0.80;;
72198;SDS011;72266;51.056;16.880;2024-02-23T09:03:47;4.10;;;1.10;;
72198;SDS011;72266;51.056;16.880;2024-02-23T09:06:17;4.10;;;1.00;;
72198;SDS011;72266;51.056;16.880;2024-02-23T09:08:50;4.60;;;0.90;;
72198;SDS011;72266;51.056;16.880;2024-02-23T09:11:20;3.90;;;1.00;;
72198;SDS011;72266;51.056;16.880;2024-02-23T09:13:51;3.80;;;1.00;;
72198;SDS011;72266;51.056;16.880;2024-02-23T09:16:21;3.50;;;0.90;;
72198;SDS011;72266;51.056;16.880;2024-02-23T09:18:53;5.10;;;0.80;;
72198;SDS011;72266;51.056;16.880;2024-02-23T09:21:23;2.90;;;0.80;;
72198;SDS011;72266;51.056;16.880;2024-02-23T09:23:53;3.60;;;0.90;;
72198;SDS011;72266;51.056;16.880;2024-02-23T09:26:24;4.40;;;0.90;;
72198;SDS011;72266;51.056;16.880;2024-02-23T09:28:59;3.70;;;0.90;;
72198;SDS011;72266;51.056;16.880;2024-02-23T09:31:29;3.40;;;0.90;;
72198;SDS011;72266;51.056;16.880;2024-02-23T09:34:00;4.10;;;1.00;;
72198;SDS011;72266;51.056;16.880;2024-02-23T09:36:32;4.30;;;1.00;;
72198;SDS011;72266;51.056;16.880;2024-02-23T09:39:04;5.90;;;1.80;;
72198;SDS011;72266;51.056;16.880;2024-02-23T09:41:37;4.30;;;1.00;;
72198;SDS011;72266;51.056;16.880;2024-02-23T09:44:09;3.50;;;1.00;;
72198;SDS011;72266;51.056;16.880;2024-02-23T09:46:41;4.30;;;0.80;;
72198;SDS011;72266;51.056;16.880;2024-02-23T09:49:13;4.30;;;0.90;;
72198;SDS011;72266;51.056;16.880;2024-02-23T09:51:45;3.40;;;1.00;;
72198;SDS011;72266;51.056;16.880;2024-02-23T09:54:15;3.60;;;0.80;;
72198;SDS011;72266;51.056;16.880;2024-02-23T09:56:48;4.90;;;0.90;;
72198;SDS011;72266;51.056;16.880;2024-02-23T09:59:19;3.90;;;0.90;;
72198;SDS011;72266;51.056;16.880;2024-02-23T10:01:49;4.90;;;1.20;;
72198;SDS011;72266;51.056;16.880;2024-02-23T10:04:20;5.80;;;1.10;;
72198;SDS011;72266;51.056;16.880;2024-02-23T10:06:50;6.80;;;1.20;;
72198;SDS011;72266;51.056;16.880;2024-02-23T10:09:20;6.90;;;1.30;;
72198;SDS011;72266;51.056;16.880;2024-02-23T10:11:52;4.60;;;1.00;;
72198;SDS011;72266;51.056;16.880;2024-02-23T10:14:23;4.50;;;1.00;;
72198;SDS011;72266;51.056;16.880;2024-02-23T10:16:52;3.80;;;1.00;;
72198;SDS011;72266;51.056;16.880;2024-02-23T10:19:23;4.80;;;0.90;;
72198;SDS011;72266;51.056;16.880;2024-02-23T10:21:56;4.90;;;0.90;;
72198;SDS011;72266;51.056;16.880;2024-02-23T10:24:27;4.70;;;1.00;;
72198;SDS011;72266;51.056;16.880;2024-02-23T10:26:56;6.10;;;1.30;;
72198;SDS011;72266;51.056;16.880;2024-02-23T10:29:26;5.80;;;1.30;;
72198;SDS011;72266;51.056;16.880;2024-02-23T10:31:57;5.20;;;1.10;;
72198;SDS011;72266;51.056;16.880;2024-02-23T10:34:27;5.30;;;1.30;;
72198;SDS011;72266;51.056;16.880;2024-02-23T10:36:59;7.20;;;1.40;;
72198;SDS011;72266;51.056;16.880;2024-02-23T10:39:29;4.80;;;1.10;;
72198;SDS011;72266;51.056;16.880;2024-02-23T10:42:01;5.20;;;0.90;;
72198;SDS011;72266;51.056;16.880;2024-02-23T10:44:35;4.40;;;1.10;;
72198;SDS011;72266;51.056;16.880;2024-02-23T10:47:09;5.00;;;0.90;;
72198;SDS011;72266;51.056;16.880;2024-02-23T10:49:39;5.60;;;1.00;;
72198;SDS011;72266;51.056;16.880;2024-02-23T10:52:09;4.10;;;0.80;;
72198;SDS011;72266;51.056;16.880;2024-02-23T10:54:41;4.90;;;1.50;;
72198;SDS011;72266;51.056;16.880;2024-02-23T10:57:11;4.30;;;1.00;;
72198;SDS011;72266;51.056;16.880;2024-02-23T10:59:46;7.60;;;1.00;;
72198;SDS011;72266;51.056;16.880;2024-02-23T11:02:17;4.00;;;1.30;;
72198;SDS011;72266;51.056;16.880;2024-02-23T11:04:48;4.80;;;0.80;;
72198;SDS011;72266;51.056;16.880;2024-02-23T11:07:19;4.00;;;1.10;;
72198;SDS011;72266;51.056;16.880;2024-02-23T11:09:51;5.40;;;1.50;;
72198;SDS011;72266;51.056;16.880;2024-02-23T11:12:24;7.00;;;2.00;;
72198;SDS011;72266;51.056;16.880;2024-02-23T11:14:57;5.70;;;1.30;;
72198;SDS011;72266;51.056;16.880;2024-02-23T11:17:28;5.70;;;1.00;;
72198;SDS011;72266;51.056;16.880;2024-02-23T11:20:02;6.50;;;1.00;;
72198;SDS011;72266;51.056;16.880;2024-02-23T11:22:33;5.70;;;0.90;;
72198;SDS011;72266;51.056;16.880;2024-02-23T11:25:10;6.00;;;1.10;;
72198;SDS011;72266;51.056;16.880;2024-02-23T11:27:40;5.40;;;1.10;;
72198;SDS011;72266;51.056;16.880;2024-02-23T11:30:12;14.30;;;1.90;;
72198;SDS011;72266;51.056;16.880;2024-02-23T11:32:46;7.10;;;1.30;;
72198;SDS011;72266;51.056;16.880;2024-02-23T11:35:19;7.00;;;1.30;;
72198;SDS011;72266;51.056;16.880;2024-02-23T11:37:52;6.10;;;1.20;;
72198;SDS011;72266;51.056;16.880;2024-02-23T11:40:26;4.60;;;1.00;;
72198;SDS011;72266;51.056;16.880;2024-02-23T11:42:56;6.20;;;1.40;;
72198;SDS011;72266;51.056;16.880;2024-02-23T11:45:28;5.50;;;1.00;;
72198;SDS011;72266;51.056;16.880;2024-02-23T11:47:58;5.90;;;1.00;;
72198;SDS011;72266;51.056;16.880;2024-02-23T11:50:29;6.90;;;1.30;;
72198;SDS011;72266;51.056;16.880;2024-02-23T11:53:02;9.00;;;1.80;;
72198;SDS011;72266;51.056;16.880;2024-02-23T11:55:38;8.10;;;1.60;;
72198;SDS011;72266;51.056;16.880;2024-02-23T11:58:08;5.10;;;0.90;;
72198;SDS011;72266;51.056;16.880;2024-02-23T12:00:46;8.20;;;1.60;;
72198;SDS011;72266;51.056;16.880;2024-02-23T12:03:16;5.90;;;1.10;;
72198;SDS011;72266;51.056;16.880;2024-02-23T12:05:46;7.60;;;1.40;;
72198;SDS011;72266;51.056;16.880;2024-02-23T12:08:19;9.90;;;1.10;;
72198;SDS011;72266;51.056;16.880;2024-02-23T12:10:49;4.20;;;0.80;;
72198;SDS011;72266;51.056;16.880;2024-02-23T12:13:19;5.40;;;1.30;;
72198;SDS011;72266;51.056;16.880;2024-02-23T12:15:51;7.70;;;1.80;;
72198;SDS011;72266;51.056;16.880;2024-02-23T12:18:21;8.30;;;2.30;;
72198;SDS011;72266;51.056;16.880;2024-02-23T12:20:54;13.30;;;1.90;;
72198;SDS011;72266;51.056;16.880;2024-02-23T12:23:38;13.70;;;3.20;;
72198;SDS011;72266;51.056;16.880;2024-02-23T12:26:09;10.40;;;2.30;;
72198;SDS011;72266;51.056;16.880;2024-02-23T12:28:42;10.70;;;1.80;;
72198;SDS011;72266;51.056;16.880;2024-02-23T12:31:16;8.90;;;2.00;;
72198;SDS011;72266;51.056;16.880;2024-02-23T12:33:55;6.10;;;1.30;;
72198;SDS011;72266;51.056;16.880;2024-02-23T12:36:27;5.50;;;1.10;;
72198;SDS011;72266;51.056;16.880;2024-02-23T12:39:03;5.20;;;1.20;;
72198;SDS011;72266;51.056;16.880;2024-02-23T12:41:33;5.70;;;1.00;;
72198;SDS011;72266;51.056;16.880;2024-02-23T12:44:05;5.90;;;1.50;;
72198;SDS011;72266;51.056;16.880;2024-02-23T12:46:38;6.30;;;1.30;;
72198;SDS011;72266;51.056;16.880;2024-02-23T12:49:08;12.10;;;2.50;;
72198;SDS011;72266;51.056;16.880;2024-02-23T12:51:38;9.60;;;3.00;;
72198;SDS011;72266;51.056;16.880;2024-02-23T12:54:11;9.10;;;2.30;;
72198;SDS011;72266;51.056;16.880;2024-02-23T12:56:41;7.50;;;1.80;;
72198;SDS011;72266;51.056;16.880;2024-02-23T12:59:12;5.20;;;1.50;;
72198;SDS011;72266;51.056;16.880;2024-02-23T13:01:42;6.10;;;1.70;;
72198;SDS011;72266;51.056;16.880;2024-02-23T13:04:14;9.50;;;3.00;;
72198;SDS011;72266;51.056;16.880;2024-02-23T13:06:44;7.20;;;2.10;;
72198;SDS011;72266;51.056;16.880;2024-02-23T13:09:15;9.60;;;2.60;;
72198;SDS011;72266;51.056;16.880;2024-02-23T13:11:46;9.20;;;2.50;;
72198;SDS011;72266;51.056;16.880;2024-02-23T13:14:16;8.40;;;2.30;;
72198;SDS011;72266;51.056;16.880;2024-02-23T13:16:46;8.40;;;1.90;;
72198;SDS011;72266;51.056;16.880;2024-02-23T13:19:16;11.10;;;3.30;;
72198;SDS011;72266;51.056;16.880;2024-02-23T13:21:46;17.50;;;5.30;;
72198;SDS011;72266;51.056;16.880;2024-02-23T13:24:16;15.30;;;4.90;;
72198;SDS011;72266;51.056;16.880;2024-02-23T13:26:46;9.50;;;3.00;;
72198;SDS011;72266;51.056;16.880;2024-02-23T13:29:16;7.90;;;2.20;;
72198;SDS011;72266;51.056;16.880;2024-02-23T13:31:47;9.90;;;3.30;;
72198;SDS011;72266;51.056;16.880;2024-02-23T13:34:20;11.60;;;4.00;;
72198;SDS011;72266;51.056;16.880;2024-02-23T13:36:50;12.10;;;4.50;;
72198;SDS011;72266;51.056;16.880;2024-02-23T13:39:20;13.10;;;3.90;;
72198;SDS011;72266;51.056;16.880;2024-02-23T13:41:50;8.90;;;3.30;;
72198;SDS011;72266;51.056;16.880;2024-02-23T13:44:22;9.30;;;2.70;;
72198;SDS011;72266;51.056;16.880;2024-02-23T13:46:53;9.00;;;2.20;;
72198;SDS011;72266;51.056;16.880;2024-02-23T13:49:30;10.00;;;2.50;;
72198;SDS011;72266;51.056;16.880;2024-02-23T13:52:01;12.40;;;4.40;;
72198;SDS011;72266;51.056;16.880;2024-02-23T13:54:33;13.00;;;4.40;;
72198;SDS011;72266;51.056;16.880;2024-02-23T13:57:04;12.00;;;4.20;;
72198;SDS011;72266;51.056;16.880;2024-02-23T13:59:39;10.70;;;3.40;;
72198;SDS011;72266;51.056;16.880;2024-02-23T14:02:09;15.60;;;5.60;;
72198;SDS011;72266;51.056;16.880;2024-02-23T14:04:39;18.70;;;6.60;;
72198;SDS011;72266;51.056;16.880;2024-02-23T14:07:10;19.10;;;6.50;;
72198;SDS011;72266;51.056;16.880;2024-02-23T14:09:40;18.30;;;8.40;;
72198;SDS011;72266;51.056;16.880;2024-02-23T14:12:10;18.70;;;8.40;;
72198;SDS011;72266;51.056;16.880;2024-02-23T14:14:40;11.10;;;4.60;;
72198;SDS011;72266;51.056;16.880;2024-02-23T14:17:10;11.60;;;3.60;;
72198;SDS011;72266;51.056;16.880;2024-02-23T14:19:40;10.90;;;4.50;;
72198;SDS011;72266;51.056;16.880;2024-02-23T14:22:10;11.40;;;3.50;;
72198;SDS011;72266;51.056;16.880;2024-02-23T14:24:39;10.90;;;2.50;;
72198;SDS011;72266;51.056;16.880;2024-02-23T14:27:10;10.00;;;2.10;;
72198;SDS011;72266;51.056;16.880;2024-02-23T14:29:40;5.90;;;1.80;;
72198;SDS011;72266;51.056;16.880;2024-02-23T14:32:10;9.50;;;1.80;;
72198;SDS011;72266;51.056;16.880;2024-02-23T14:34:48;11.60;;;3.00;;
72198;SDS011;72266;51.056;16.880;2024-02-23T14:37:20;14.80;;;5.20;;
72198;SDS011;72266;51.056;16.880;2024-02-23T14:40:07;23.60;;;6.80;;
72198;SDS011;72266;51.056;16.880;2024-02-23T14:42:40;11.20;;;2.80;;
72198;SDS011;72266;51.056;16.880;2024-02-23T14:45:10;9.50;;;2.80;;
72198;SDS011;72266;51.056;16.880;2024-02-23T14:47:41;9.00;;;2.60;;
72198;SDS011;72266;51.056;16.880;2024-02-23T14:50:14;11.00;;;3.60;;
72198;SDS011;72266;51.056;16.880;2024-02-23T14:52:47;14.70;;;4.40;;
72198;SDS011;72266;51.056;16.880;2024-02-23T14:55:17;11.70;;;4.00;;
72198;SDS011;72266;51.056;16.880;2024-02-23T14:57:47;8.80;;;2.70;;